Time;durP1;ratioP1;P1;durP2;ratioP2;P2;SDS_P1;SDS_P2;PMS_P1;PMS_P2;Temp;Humidity;BMP_temperature;BMP_pressure;BME280_temperature;BME280_humidity;BME280_pressure;Samples;Min_cycle;Max_cycle;Signal;HPM_P1;HPM_P2
2022/12/25 00:02:06;;;;;;;17.23;3.80;;;;;;;6.88;56.50;95469.28;4997454;28;20236;-65
2022/12/25 00:04:31;;;;;;;20.63;4.03;;;;;;;7.20;55.18;95468.75;5004190;28;20118;-65
2022/12/25 00:06:58;;;;;;;14.13;4.60;;;;;;;6.93;55.17;95470.66;5001412;28;20438;-65
2022/12/25 00:09:23;;;;;;;19.08;3.92;;;;;;;6.64;56.12;95470.00;5002398;28;20175;-65
2022/12/25 00:11:49;;;;;;;14.32;3.20;;;;;;;7.35;54.77;95469.78;5001256;28;20086;-65
2022/12/25 00:14:14;;;;;;;10.68;3.22;;;;;;;7.51;54.00;95482.25;5003531;28;20115;-65
2022/12/25 00:16:39;;;;;;;11.80;3.22;;;;;;;7.55;53.60;95490.69;5006703;28;20542;-65
2022/12/25 00:19:05;;;;;;;11.82;3.75;;;;;;;7.89;52.56;95489.81;5001450;28;20893;-65
2022/12/25 00:21:32;;;;;;;10.02;3.10;;;;;;;7.92;51.91;95493.94;5003403;28;20048;-64
2022/12/25 00:23:57;;;;;;;10.43;2.92;;;;;;;7.31;53.43;95497.59;5005418;28;20106;-65
2022/12/25 00:26:23;;;;;;;24.08;3.97;;;;;;;5.57;56.96;95515.69;5001816;28;20185;-64
2022/12/25 00:28:55;;;;;;;16.00;3.53;;;;;;;5.57;60.11;95486.66;5003429;28;20072;-65
2022/12/25 00:31:21;;;;;;;14.30;3.80;;;;;;;6.85;56.10;95487.31;5001498;28;20149;-65
2022/12/25 00:33:46;;;;;;;11.82;3.70;;;;;;;7.12;54.80;95499.53;5001186;28;20145;-65
2022/12/25 00:36:13;;;;;;;11.85;3.33;;;;;;;7.19;53.98;95505.00;5003957;28;20573;-65
2022/12/25 00:38:38;;;;;;;12.07;3.33;;;;;;;6.81;54.62;95499.19;5000669;28;20087;-65
2022/12/25 00:41:12;;;;;;;11.23;3.38;;;;;;;6.91;55.64;95496.44;5003114;28;20093;-65
2022/12/25 00:43:37;;;;;;;8.13;3.08;;;;;;;6.93;55.33;95502.41;5000094;28;20535;-64
2022/12/25 00:46:03;;;;;;;9.07;3.75;;;;;;;7.39;54.68;95496.81;5003202;28;20073;-65
2022/12/25 00:48:29;;;;;;;8.40;2.95;;;;;;;7.42;54.40;95499.13;5001328;28;20512;-65
2022/12/25 00:50:59;;;;;;;12.88;3.15;;;;;;;7.44;54.32;95498.97;5001160;28;20128;-65
2022/12/25 00:53:25;;;;;;;10.88;3.17;;;;;;;7.44;53.00;95501.63;4997676;28;20506;-64
2022/12/25 00:56:01;;;;;;;8.50;3.40;;;;;;;7.76;53.56;95505.34;4999468;28;20097;-64
2022/12/25 00:58:27;;;;;;;10.38;3.10;;;;;;;8.02;52.56;95502.59;4998631;28;20075;-65
2022/12/25 01:00:53;;;;;;;12.90;3.30;;;;;;;7.20;54.13;95506.66;5001500;28;20045;-65
2022/12/25 01:03:18;;;;;;;12.48;3.80;;;;;;;7.53;54.11;95503.31;5002917;28;20179;-65
2022/12/25 01:05:49;;;;;;;12.77;3.15;;;;;;;7.84;52.31;95502.72;5004549;28;20052;-65
2022/12/25 01:08:15;;;;;;;14.40;3.60;;;;;;;7.97;52.45;95506.72;4998059;28;20426;-65
2022/12/25 01:10:40;;;;;;;51.92;3.70;;;;;;;5.71;58.36;95517.84;5006652;28;20083;-65
2022/12/25 01:13:07;;;;;;;16.77;3.42;;;;;;;6.81;56.01;95504.50;5006104;28;20059;-65
2022/12/25 01:15:32;;;;;;;133.07;5.10;;;;;;;6.03;56.75;95504.25;5007928;28;20094;-65
2022/12/25 01:17:57;;;;;;;20.88;3.30;;;;;;;7.08;55.46;95508.78;5011884;28;20084;-65
2022/12/25 01:20:23;;;;;;;118.10;4.68;;;;;;;7.23;54.58;95518.75;5007565;28;20292;-65
2022/12/25 01:22:48;;;;;;;99.28;4.70;;;;;;;7.27;54.66;95510.34;5007220;28;20442;-65
2022/12/25 01:25:14;;;;;;;44.83;3.13;;;;;;;7.70;53.74;95503.34;5003942;28;20057;-65
2022/12/25 01:27:39;;;;;;;29.55;3.00;;;;;;;7.92;53.47;95494.78;5004339;28;20088;-65
2022/12/25 01:30:05;;;;;;;330.70;8.55;;;;;;;7.67;52.40;95504.50;5007024;28;20089;-65
2022/12/25 01:32:31;;;;;;;37.78;4.45;;;;;;;7.74;54.03;95508.16;5007826;28;21055;-65
2022/12/25 01:34:56;;;;;;;94.18;4.72;;;;;;;7.78;53.10;95506.03;5004331;28;20112;-65
2022/12/25 01:37:23;;;;;;;41.17;3.22;;;;;;;7.96;54.01;95513.84;5008815;28;20131;-66
2022/12/25 01:39:48;;;;;;;29.05;3.53;;;;;;;8.17;53.75;95518.66;5008730;28;20085;-65
2022/12/25 01:42:18;;;;;;;39.00;3.72;;;;;;;8.24;51.97;95512.69;5005950;28;20489;-65
2022/12/25 01:44:46;;;;;;;125.97;4.35;;;;;;;8.16;51.32;95516.19;5002833;28;20067;-65
2022/12/25 01:47:11;;;;;;;22.45;2.80;;;;;;;8.41;52.47;95506.41;5006675;28;20240;-64
2022/12/25 01:49:38;;;;;;;33.78;2.95;;;;;;;8.10;52.99;95503.59;5007553;28;20057;-65
2022/12/25 01:52:20;;;;;;;45.97;3.47;;;;;;;8.16;52.89;95503.75;5009787;28;20416;-65
2022/12/25 01:54:56;;;;;;;14.40;3.25;;;;;;;8.28;52.31;95506.91;5011220;28;20514;-65
2022/12/25 01:57:25;;;;;;;16.60;2.97;;;;;;;8.36;52.41;95495.44;5010310;28;20050;-65
2022/12/25 01:59:50;;;;;;;47.28;3.15;;;;;;;8.44;51.66;95499.94;5007285;28;20089;-65
2022/12/25 02:02:16;;;;;;;20.17;3.47;;;;;;;7.88;53.44;95500.56;4986869;28;20410;-64
2022/12/25 02:04:48;;;;;;;10.68;4.30;;;;;;;8.12;52.80;95491.81;5003071;28;20077;-64
2022/12/25 02:07:21;;;;;;;24.15;5.07;;;;;;;8.24;52.09;95499.44;4999417;28;20078;-65
2022/12/25 02:09:47;;;;;;;10.82;3.00;;;;;;;8.27;50.94;95491.16;5005578;28;20105;-65
2022/12/25 02:12:31;;;;;;;5.78;2.95;;;;;;;7.92;52.53;95502.75;5005574;28;20388;-64
2022/12/25 02:15:02;;;;;;;10.73;3.05;;;;;;;7.65;53.91;95491.41;5006302;28;20153;-65
2022/12/25 02:17:52;;;;;;;9.95;3.10;;;;;;;6.86;56.00;95489.81;5006269;28;20066;-64
2022/12/25 02:20:40;;;;;;;14.75;3.40;;;;;;;5.97;57.76;95490.66;5004889;28;20202;-64
2022/12/25 02:23:32;;;;;;;12.30;5.97;;;;;;;6.34;56.30;95487.97;5004661;28;20591;-64
2022/12/25 02:26:15;;;;;;;13.07;3.10;;;;;;;7.39;55.08;95479.06;5007624;28;20081;-64
2022/12/25 02:29:00;;;;;;;10.48;4.97;;;;;;;7.48;53.92;95492.38;4985592;28;20060;-64
2022/12/25 02:31:37;;;;;;;12.30;3.45;;;;;;;7.78;54.43;95490.13;5000152;28;20236;-65
2022/12/25 02:34:23;;;;;;;11.27;4.68;;;;;;;8.01;53.51;95492.13;4999742;28;20106;-65
2022/12/25 02:37:16;;;;;;;10.75;3.20;;;;;;;7.37;54.36;95488.19;4997436;28;20072;-64
2022/12/25 02:40:36;;;;;;;13.15;3.95;;;;;;;7.68;53.75;95484.94;4999924;28;20232;-64
2022/12/25 03:07:46;;;;;;;15.20;3.47;;;;;;;8.22;51.50;95491.66;5005772;28;20093;-64
2022/12/25 03:13:02;;;;;;;16.02;3.60;;;;;;;8.05;52.04;95499.59;5003334;28;20588;-64
2022/12/25 03:18:13;;;;;;;12.07;3.40;;;;;;;8.36;52.18;95490.16;5019097;28;20118;-64
2022/12/25 03:28:55;;;;;;;11.57;3.50;;;;;;;7.63;52.82;95488.09;5002899;28;20461;-64
2022/12/25 03:31:39;;;;;;;13.48;8.10;;;;;;;7.96;52.54;95489.16;4999474;28;20081;-64
2022/12/25 04:38:32;;;;;;;12.70;6.55;;;;;;;8.02;52.82;95423.03;5001189;28;20136;-63
2022/12/25 04:40:58;;;;;;;16.30;4.25;;;;;;;7.43;52.61;95439.03;5001615;28;20490;-64
2022/12/25 04:43:24;;;;;;;10.93;4.88;;;;;;;7.97;53.16;95443.94;5005649;28;20156;-64
2022/12/25 04:45:53;;;;;;;10.10;4.60;;;;;;;8.20;52.62;95434.47;5001459;28;20075;-64
2022/12/25 04:48:19;;;;;;;22.67;5.38;;;;;;;7.73;53.54;95442.06;5000149;28;20078;-64
2022/12/25 04:50:44;;;;;;;37.17;5.57;;;;;;;7.61;52.77;95445.03;5002372;28;20077;-64
2022/12/25 04:53:10;;;;;;;25.00;5.68;;;;;;;7.90;52.36;95446.44;5002288;28;20187;-64
2022/12/25 04:55:35;;;;;;;15.82;4.82;;;;;;;7.77;53.54;95440.78;5002881;28;20089;-64
2022/12/25 04:58:01;;;;;;;27.33;4.80;;;;;;;8.12;52.93;95448.53;5004806;28;20451;-64
2022/12/25 05:00:26;;;;;;;19.98;8.35;;;;;;;8.28;52.69;95453.88;5000954;28;20057;-64
2022/12/25 05:02:51;;;;;;;377.42;14.25;;;;;;;5.68;57.16;95464.47;5002673;28;20073;-64
2022/12/25 05:05:17;;;;;;;23.08;4.88;;;;;;;7.00;56.70;95455.78;5005477;28;20058;-64
2022/12/25 05:07:42;;;;;;;16.73;9.27;;;;;;;7.64;55.31;95462.41;5002720;28;20089;-63
2022/12/25 05:10:08;;;;;;;15.52;5.28;;;;;;;8.02;53.59;95460.16;5005110;28;20504;-64
2022/12/25 05:12:33;;;;;;;83.80;5.55;;;;;;;7.99;52.30;95457.84;5002909;28;20064;-64
2022/12/25 05:14:59;;;;;;;29.23;4.80;;;;;;;7.94;52.58;95454.88;5005958;28;20079;-64
2022/12/25 05:17:24;;;;;;;7.50;4.25;;;;;;;8.25;53.21;95458.66;5008085;28;20053;-64
2022/12/25 05:19:50;;;;;;;9.90;5.53;;;;;;;8.41;53.06;95461.31;5005659;28;20468;-65
2022/12/25 05:22:15;;;;;;;30.95;7.10;;;;;;;8.55;52.84;95465.09;5008722;28;20079;-64
2022/12/25 05:24:40;;;;;;;13.02;4.43;;;;;;;8.67;52.43;95451.47;5000702;28;20493;-64
2022/12/25 05:27:06;;;;;;;25.48;4.97;;;;;;;8.79;51.67;95450.09;5005878;28;20081;-64
2022/12/25 05:29:31;;;;;;;14.82;4.57;;;;;;;8.84;51.54;95448.75;5011873;28;20055;-64
2022/12/25 05:31:56;;;;;;;17.80;4.35;;;;;;;8.80;51.28;95449.09;5005440;28;20508;-64
2022/12/25 05:34:22;;;;;;;33.38;5.03;;;;;;;8.80;51.33;95443.78;5006773;28;20075;-65
2022/12/25 05:36:47;;;;;;;53.45;5.15;;;;;;;8.76;51.09;95434.53;5003477;28;20095;-64
2022/12/25 05:39:13;;;;;;;34.90;5.55;;;;;;;8.18;51.96;95431.97;5005495;28;20431;-65
2022/12/25 05:41:38;;;;;;;60.83;8.85;;;;;;;7.99;52.94;95428.66;5004139;28;20581;-65
2022/12/25 05:44:03;;;;;;;151.15;7.22;;;;;;;8.37;52.18;95422.00;5001948;28;20087;-64
2022/12/25 05:46:29;;;;;;;288.70;7.72;;;;;;;8.41;51.36;95421.53;5003786;28;20083;-64
2022/12/25 05:48:54;;;;;;;55.63;4.72;;;;;;;8.45;51.27;95419.34;5003810;28;20049;-65
2022/12/25 05:51:20;;;;;;;63.95;4.13;;;;;;;8.59;51.99;95427.59;5005099;28;20090;-64
2022/12/25 05:53:45;;;;;;;47.72;3.75;;;;;;;8.65;51.25;95421.63;5006840;28;20050;-64
2022/12/25 05:56:11;;;;;;;72.35;7.72;;;;;;;8.71;51.31;95425.41;5005583;28;20063;-64
2022/12/25 05:58:37;;;;;;;142.18;6.07;;;;;;;8.50;51.33;95434.75;5004011;28;20087;-65
2022/12/25 06:01:03;;;;;;;58.13;6.10;;;;;;;7.95;52.58;95421.25;5004629;28;20057;-65
2022/12/25 06:03:28;;;;;;;27.75;6.22;;;;;;;7.72;53.73;95414.72;5004575;28;20152;-63
2022/12/25 06:05:53;;;;;;;14.70;3.50;;;;;;;8.10;52.92;95408.97;5004204;28;20077;-63
2022/12/25 06:08:19;;;;;;;23.00;4.68;;;;;;;8.36;52.28;95413.22;5003155;28;20056;-64
2022/12/25 06:10:44;;;;;;;24.08;3.70;;;;;;;8.59;51.38;95411.66;5012210;28;20104;-64
2022/12/25 06:13:10;;;;;;;36.53;4.18;;;;;;;8.65;51.42;95413.66;5016514;28;20089;-64
2022/12/25 06:15:40;;;;;;;11.05;3.22;;;;;;;8.71;51.05;95404.19;5003768;28;20072;-64
2022/12/25 06:18:06;;;;;;;58.53;4.32;;;;;;;8.72;51.81;95398.69;5014099;28;20077;-64
2022/12/25 06:20:31;;;;;;;40.50;3.33;;;;;;;8.84;50.80;95398.31;5005239;28;20424;-64
2022/12/25 06:22:57;;;;;;;65.43;4.15;;;;;;;8.63;51.23;95399.72;5010377;28;20521;-64
2022/12/25 06:25:22;;;;;;;15.52;2.83;;;;;;;8.74;50.74;95404.66;5003528;28;20065;-64
2022/12/25 06:27:47;;;;;;;19.92;3.40;;;;;;;8.68;51.12;95405.34;5010045;28;20075;-64
2022/12/25 06:30:13;;;;;;;16.95;3.10;;;;;;;8.73;50.90;95413.63;5004559;28;20109;-65
2022/12/25 06:32:38;;;;;;;18.13;3.72;;;;;;;8.71;50.96;95409.47;5006865;28;20081;-65
2022/12/25 06:35:04;;;;;;;10.05;2.60;;;;;;;8.68;50.44;95397.38;5011561;28;20260;-64
2022/12/25 06:37:30;;;;;;;121.15;5.50;;;;;;;8.05;51.62;95396.19;5006942;28;20080;-64
2022/12/25 06:39:55;;;;;;;31.08;3.55;;;;;;;8.33;51.67;95394.97;5005552;28;20089;-64
2022/12/25 06:42:21;;;;;;;31.00;3.65;;;;;;;8.35;51.58;95394.81;5001794;28;20087;-64
2022/12/25 06:44:46;;;;;;;31.83;3.25;;;;;;;8.50;51.60;95398.44;5004116;28;20078;-63
2022/12/25 06:47:12;;;;;;;140.88;4.82;;;;;;;7.94;51.16;95398.34;5002466;28;20294;-64
2022/12/25 06:49:37;;;;;;;147.52;5.68;;;;;;;6.57;55.21;95406.34;5004113;28;20098;-64
2022/12/25 06:52:03;;;;;;;181.35;5.47;;;;;;;7.58;52.72;95396.84;5004573;28;20070;-64
2022/12/25 06:54:28;;;;;;;94.30;4.38;;;;;;;7.92;52.63;95398.53;4998778;28;20466;-64
2022/12/25 06:56:53;;;;;;;34.47;2.65;;;;;;;8.20;51.86;95394.69;5000020;28;20075;-64
2022/12/25 06:59:19;;;;;;;63.58;5.30;;;;;;;8.15;51.96;95395.19;4999090;28;20552;-64
2022/12/25 07:01:55;;;;;;;50.88;3.10;;;;;;;8.30;51.59;95396.16;5002363;28;20065;-64
2022/12/25 07:04:34;;;;;;;83.85;8.25;;;;;;;8.04;51.91;95386.59;4998434;28;20524;-64
2022/12/25 07:06:59;;;;;;;478.35;11.15;;;;;;;7.33;53.47;95386.22;5002840;28;20079;-64
2022/12/25 07:09:25;;;;;;;117.90;4.63;;;;;;;7.76;52.76;95376.28;5001229;28;20449;-64
2022/12/25 07:11:50;;;;;;;197.10;5.75;;;;;;;8.01;52.14;95367.53;5001220;28;20081;-64
2022/12/25 07:14:17;;;;;;;104.53;4.75;;;;;;;8.28;51.78;95373.44;5006376;28;20080;-64
2022/12/25 07:16:42;;;;;;;188.68;5.57;;;;;;;8.15;51.52;95373.97;5002845;28;20231;-63
2022/12/25 07:19:08;;;;;;;116.82;5.03;;;;;;;8.00;52.35;95371.19;5005824;28;20100;-64
2022/12/25 07:21:34;;;;;;;36.63;3.22;;;;;;;8.09;51.90;95364.88;4998524;28;20080;-64
2022/12/25 07:23:59;;;;;;;22.25;2.72;;;;;;;8.42;51.33;95358.66;4998148;28;20447;-64
2022/12/25 07:26:24;;;;;;;109.25;4.03;;;;;;;8.24;51.38;95370.31;4996744;28;20094;-64
2022/12/25 07:28:50;;;;;;;72.57;4.10;;;;;;;8.17;51.88;95364.03;5004054;28;20071;-64
2022/12/25 07:31:15;;;;;;;40.42;3.10;;;;;;;8.40;51.43;95358.81;5003687;28;20425;-64
2022/12/25 07:33:41;;;;;;;43.97;3.17;;;;;;;8.59;51.22;95351.47;4999181;28;20545;-63
2022/12/25 07:36:07;;;;;;;31.10;4.28;;;;;;;8.52;51.03;95354.00;5005080;28;20054;-64
2022/12/25 07:38:32;;;;;;;44.92;3.65;;;;;;;8.53;51.32;95350.34;5006203;28;20078;-64
2022/12/25 07:40:57;;;;;;;30.23;3.53;;;;;;;8.65;51.36;95357.91;4998487;28;20108;-64
2022/12/25 07:43:23;;;;;;;30.50;3.63;;;;;;;8.61;50.73;95349.50;4997790;28;20089;-64
2022/12/25 07:45:57;;;;;;;7.75;2.63;;;;;;;8.56;50.84;95349.16;4998719;28;20062;-64
2022/12/25 07:48:23;;;;;;;3.97;2.72;;;;;;;8.57;50.72;95351.63;4999442;28;20079;-64
2022/12/25 07:50:48;;;;;;;10.80;2.80;;;;;;;8.52;50.36;95363.75;4999829;28;20434;-64
2022/12/25 07:53:13;;;;;;;4.50;2.40;;;;;;;8.80;49.93;95348.22;5000122;28;20077;-63
2022/12/25 07:55:39;;;;;;;7.70;2.63;;;;;;;8.54;50.53;95349.31;5002711;28;20080;-64
2022/12/25 07:58:04;;;;;;;3.90;3.17;;;;;;;8.46;50.88;95365.28;5003765;28;20087;-64
2022/12/25 08:00:31;;;;;;;5.18;2.50;;;;;;;8.55;50.81;95353.66;5001127;28;20056;-64
2022/12/25 08:02:57;;;;;;;11.35;2.42;;;;;;;8.69;50.15;95360.06;4997777;28;20074;-64
2022/12/25 08:05:23;;;;;;;11.70;2.67;;;;;;;8.85;49.99;95358.34;5001556;28;20089;-64
2022/12/25 08:07:52;;;;;;;9.75;3.35;;;;;;;8.35;50.76;95369.13;4998231;28;20076;-64
2022/12/25 08:10:17;;;;;;;5.57;3.30;;;;;;;8.44;50.99;95362.78;4998156;28;20548;-64
2022/12/25 08:12:42;;;;;;;6.20;4.13;;;;;;;8.20;51.07;95341.66;4999327;28;20061;-64
2022/12/25 08:15:08;;;;;;;7.30;3.70;;;;;;;8.16;51.30;95346.47;5002632;28;20093;-64
2022/12/25 08:17:34;;;;;;;8.75;2.88;;;;;;;8.24;51.14;95335.84;4995632;28;20057;-64
2022/12/25 08:19:59;;;;;;;3.55;2.72;;;;;;;8.26;51.28;95339.13;5007563;28;20491;-64
2022/12/25 08:22:25;;;;;;;7.30;2.88;;;;;;;8.28;51.24;95345.13;5003480;28;20081;-64
2022/12/25 08:24:50;;;;;;;7.38;3.35;;;;;;;8.26;51.42;95339.13;5007075;28;20069;-63
2022/12/25 08:27:15;;;;;;;7.97;3.25;;;;;;;8.44;50.19;95343.41;5001599;28;20113;-64
2022/12/25 08:29:43;;;;;;;6.97;3.35;;;;;;;7.88;51.78;95336.22;5007313;28;20063;-64
2022/12/25 08:32:08;;;;;;;9.35;4.22;;;;;;;7.72;51.63;95348.47;5006593;28;20471;-64
2022/12/25 08:34:34;;;;;;;6.97;3.08;;;;;;;7.73;52.21;95330.75;5008475;28;20176;-64
2022/12/25 08:36:59;;;;;;;10.40;3.20;;;;;;;7.57;53.08;95324.47;5007857;28;20072;-64
2022/12/25 08:39:24;;;;;;;7.13;3.00;;;;;;;8.00;52.38;95313.69;5003571;28;20155;-63
2022/12/25 08:41:50;;;;;;;4.93;2.67;;;;;;;8.35;51.44;95317.91;5004554;28;20419;-64
2022/12/25 08:44:15;;;;;;;7.93;3.55;;;;;;;8.43;51.25;95323.16;5007203;28;20076;-64
2022/12/25 08:46:41;;;;;;;6.25;3.10;;;;;;;8.68;50.82;95325.72;5007943;28;20540;-64
2022/12/25 08:49:06;;;;;;;13.27;4.43;;;;;;;8.39;51.73;95324.50;5005451;28;20060;-64
2022/12/25 08:51:33;;;;;;;10.18;3.35;;;;;;;8.37;51.33;95337.13;5005345;28;20078;-64
2022/12/25 08:53:58;;;;;;;41.63;3.75;;;;;;;7.94;51.99;95343.53;5002524;28;20079;-64
2022/12/25 08:56:24;;;;;;;16.05;3.85;;;;;;;7.94;52.40;95330.28;5008001;28;20063;-64
2022/12/25 08:58:49;;;;;;;39.92;3.83;;;;;;;7.97;52.39;95335.25;5003260;28;20575;-64
2022/12/25 09:01:15;;;;;;;13.20;3.50;;;;;;;8.18;51.66;95337.34;5004781;28;20071;-64
2022/12/25 09:03:41;;;;;;;49.15;4.28;;;;;;;8.29;51.17;95343.28;5010214;28;20096;-64
2022/12/25 09:06:15;;;;;;;24.45;3.25;;;;;;;8.17;52.12;95340.16;5003241;28;20166;-64
2022/12/25 09:08:41;;;;;;;29.20;3.75;;;;;;;8.34;51.57;95346.25;5003631;28;20062;-64
2022/12/25 09:11:09;;;;;;;24.65;3.50;;;;;;;8.24;51.30;95338.50;5003685;28;20370;-64
2022/12/25 09:13:34;;;;;;;12.63;4.28;;;;;;;8.27;51.47;95330.19;5001841;28;20084;-64
2022/12/25 09:16:04;;;;;;;59.78;3.80;;;;;;;8.56;50.68;95342.03;5008149;28;20146;-64
2022/12/25 09:18:30;;;;;;;65.30;4.43;;;;;;;8.32;51.40;95347.44;5005816;28;20085;-64
2022/12/25 09:20:59;;;;;;;19.30;3.95;;;;;;;7.83;52.52;95330.63;5001947;28;20430;-64
2022/12/25 09:23:24;;;;;;;94.85;4.90;;;;;;;7.62;51.94;95331.94;5004687;28;20086;-64
2022/12/25 09:25:50;;;;;;;81.10;4.43;;;;;;;8.11;52.10;95330.22;5004738;28;20073;-64
2022/12/25 09:28:15;;;;;;;60.30;4.90;;;;;;;7.99;51.81;95314.69;5005153;28;20065;-64
2022/12/25 09:30:41;;;;;;;32.42;4.32;;;;;;;8.09;51.91;95314.47;5010391;28;20079;-64
2022/12/25 09:33:06;;;;;;;44.33;3.90;;;;;;;7.92;52.33;95316.34;5003620;28;20103;-64
2022/12/25 09:35:31;;;;;;;63.13;3.95;;;;;;;8.34;51.75;95340.13;5018749;28;20574;-64
2022/12/25 09:37:57;;;;;;;64.28;3.58;;;;;;;8.27;51.73;95335.47;5016993;28;20079;-64
2022/12/25 09:40:22;;;;;;;43.88;3.60;;;;;;;8.35;51.76;95344.41;5008683;28;20102;-63
2022/12/25 09:42:48;;;;;;;59.70;3.80;;;;;;;8.09;51.93;95329.59;5008859;28;20467;-64
2022/12/25 09:45:32;;;;;;;418.23;12.30;;;;;;;7.46;53.38;95312.41;5003584;28;20187;-64
2022/12/25 09:47:58;;;;;;;87.03;4.38;;;;;;;7.89;52.38;95292.84;5004322;28;20145;-64
2022/12/25 09:50:58;;;;;;;77.53;3.58;;;;;;;8.07;52.06;95279.38;5013955;28;20076;-64
2022/12/25 09:53:25;;;;;;;46.83;2.88;;;;;;;8.52;51.36;95274.41;5008866;28;20107;-64
2022/12/25 09:56:00;;;;;;;15.38;2.65;;;;;;;8.28;52.07;95272.66;5013656;28;20064;-64
2022/12/25 09:58:26;;;;;;;107.25;5.38;;;;;;;7.84;51.94;95285.41;5009207;28;20150;-64
2022/12/25 10:01:01;;;;;;;7.43;3.35;;;;;;;7.97;52.79;95284.88;5006225;28;20056;-64
2022/12/25 10:03:42;;;;;;;3.08;2.60;;;;;;;8.58;51.90;95278.19;4992586;28;20495;-64
2022/12/25 10:06:21;;;;;;;2.85;2.60;;;;;;;8.52;51.04;95276.22;5008143;28;20170;-64
2022/12/25 10:09:09;;;;;;;8.55;3.00;;;;;;;8.10;52.14;95271.09;5004903;28;20048;-64
2022/12/25 10:11:54;;;;;;;5.25;2.60;;;;;;;8.30;51.81;95279.44;5007783;28;20520;-64
2022/12/25 10:14:37;;;;;;;6.88;2.47;;;;;;;8.51;51.64;95282.53;5007156;28;20545;-64
2022/12/25 10:17:20;;;;;;;28.17;3.30;;;;;;;8.33;51.55;95288.06;5004574;28;20392;-64
2022/12/25 10:19:52;;;;;;;14.50;3.03;;;;;;;8.36;52.05;95274.47;5003715;28;20550;-63
2022/12/25 10:22:31;;;;;;;66.97;3.25;;;;;;;8.32;51.75;95271.31;5018539;28;20101;-64
2022/12/25 10:24:56;;;;;;;67.15;3.88;;;;;;;8.35;51.66;95272.78;4999330;28;20093;-63
2022/12/25 10:27:30;;;;;;;88.05;3.80;;;;;;;8.69;51.29;95263.69;5002229;28;20563;-64
2022/12/25 10:29:55;;;;;;;102.95;5.38;;;;;;;8.41;51.77;95253.56;5006477;28;20084;-64
2022/12/25 10:32:21;;;;;;;455.48;11.45;;;;;;;8.29;51.84;95248.63;5008515;28;20063;-64
2022/12/25 10:34:47;;;;;;;87.60;5.20;;;;;;;8.55;51.93;95233.41;5008477;28;20290;-64
2022/12/25 10:37:12;;;;;;;189.35;5.25;;;;;;;8.33;52.02;95240.34;5003792;28;20192;-64
2022/12/25 10:39:38;;;;;;;30.00;2.95;;;;;;;8.57;51.86;95228.78;5006628;28;20760;-64
2022/12/25 10:42:07;;;;;;;75.10;5.75;;;;;;;8.35;51.68;95230.34;4999989;28;20091;-64
2022/12/25 10:44:33;;;;;;;122.32;5.63;;;;;;;8.08;52.90;95222.69;4998723;28;20071;-64
2022/12/25 10:46:59;;;;;;;130.38;7.35;;;;;;;7.94;52.92;95237.50;5000304;28;20515;-64
2022/12/25 10:49:36;;;;;;;64.07;4.88;;;;;;;7.84;52.77;95236.84;5006019;28;20117;-64
2022/12/25 10:52:02;;;;;;;299.98;7.80;;;;;;;7.66;53.48;95248.47;4985623;28;20543;-64
2022/12/25 10:54:34;;;;;;;77.43;4.75;;;;;;;7.83;53.37;95243.16;5000502;28;20284;-63
2022/12/25 10:57:12;;;;;;;278.05;7.00;;;;;;;7.17;55.25;95252.00;5007172;28;20109;-64
2022/12/25 10:59:45;;;;;;;153.95;5.05;;;;;;;7.38;55.31;95254.94;5002230;28;20074;-64
2022/12/25 11:02:18;;;;;;;157.05;5.13;;;;;;;7.86;53.46;95250.78;5004547;28;20081;-64
2022/12/25 11:04:43;;;;;;;141.90;4.47;;;;;;;8.15;53.29;95244.88;5003354;28;20077;-64
2022/12/25 11:07:18;;;;;;;83.38;5.20;;;;;;;8.18;53.27;95241.88;5004310;28;20082;-63
2022/12/25 11:09:54;;;;;;;90.88;4.15;;;;;;;8.47;52.08;95234.28;5002721;28;20056;-63
2022/12/25 11:12:22;;;;;;;42.20;5.47;;;;;;;8.49;52.32;95228.78;5004999;28;20073;-63
2022/12/25 11:14:55;;;;;;;98.68;5.13;;;;;;;8.69;52.12;95222.06;4999325;28;20529;-64
2022/12/25 11:17:23;;;;;;;326.63;9.38;;;;;;;8.40;52.36;95228.84;5000717;28;20554;-64
2022/12/25 11:19:55;;;;;;;455.30;13.00;;;;;;;8.05;53.50;95233.63;5002760;28;20089;-64
2022/12/25 11:22:21;;;;;;;239.43;7.90;;;;;;;8.27;52.66;95234.69;5002712;28;20102;-63
2022/12/25 11:24:46;;;;;;;129.80;5.00;;;;;;;8.26;53.47;95232.25;5005930;28;20062;-64
2022/12/25 11:27:28;;;;;;;51.75;5.90;;;;;;;8.15;53.50;95226.31;4999192;28;20395;-64
2022/12/25 11:29:56;;;;;;;64.88;6.18;;;;;;;8.57;52.08;95223.47;5006783;28;20086;-64
2022/12/25 11:32:28;;;;;;;574.50;16.17;;;;;;;7.59;54.61;95219.19;5005286;28;20201;-64
2022/12/25 11:34:54;;;;;;;30.77;4.90;;;;;;;8.23;53.89;95216.66;5009687;28;20075;-64
2022/12/25 11:37:29;;;;;;;90.90;5.10;;;;;;;8.47;52.89;95207.75;5002908;28;20096;-64
2022/12/25 11:39:54;;;;;;;48.85;4.78;;;;;;;8.21;53.59;95214.19;5004117;28;20686;-64
2022/12/25 11:42:25;;;;;;;224.07;8.50;;;;;;;7.79;54.86;95208.22;5001692;28;20077;-64
2022/12/25 11:45:04;;;;;;;38.42;5.03;;;;;;;8.08;53.80;95206.78;5009166;28;20077;-64
2022/12/25 11:47:57;;;;;;;10.45;3.80;;;;;;;8.51;53.00;95187.00;4998306;28;20580;-64
2022/12/25 11:51:05;;;;;;;31.52;5.70;;;;;;;8.81;52.27;95145.47;4997914;28;20084;-64
2022/12/25 11:53:47;;;;;;;8.88;4.90;;;;;;;8.96;51.81;95123.50;5000888;28;20564;-64
2022/12/25 11:56:21;;;;;;;16.45;3.75;;;;;;;8.90;51.97;95111.72;5007791;28;20064;-63
2022/12/25 11:58:48;;;;;;;76.35;5.47;;;;;;;8.51;51.90;95126.81;5012946;28;20071;-64
2022/12/25 12:01:37;;;;;;;10.30;3.67;;;;;;;8.66;51.99;95118.06;4982235;28;20053;-78
2022/12/25 12:04:06;;;;;;;10.60;5.82;;;;;;;8.31;53.14;95123.81;4981425;28;20568;-78
2022/12/25 12:06:46;;;;;;;5.95;4.50;;;;;;;8.75;52.26;95124.97;4992491;28;20110;-78
2022/12/25 12:09:45;;;;;;;7.30;4.03;;;;;;;8.42;52.06;95119.91;4974094;28;20048;-78
2022/12/25 12:12:32;;;;;;;8.35;5.68;;;;;;;8.46;52.82;95099.97;5004203;28;20506;-78
2022/12/25 12:15:00;;;;;;;17.25;4.10;;;;;;;7.22;55.93;95118.13;5000611;28;20336;-78
2022/12/25 12:17:25;;;;;;;;;;;;;;;7.96;53.71;95121.50;5003823;28;20100;-78
2022/12/25 12:19:51;;;;;;;6.73;4.30;;;;;;;8.27;52.07;95127.81;5000621;28;19965;-78
2022/12/25 12:22:20;;;;;;;5.72;3.65;;;;;;;8.47;53.13;95117.53;5002511;28;20090;-78
2022/12/25 12:24:46;;;;;;;8.60;4.55;;;;;;;7.93;53.91;95116.56;4984875;28;20515;-78
2022/12/25 12:27:26;;;;;;;10.00;5.38;;;;;;;8.50;53.08;95103.94;4988192;28;20073;-77
2022/12/25 12:29:54;;;;;;;7.00;5.13;;;;;;;8.57;52.37;95094.25;5008829;28;20085;-78
2022/12/25 12:32:33;;;;;;;10.25;4.72;;;;;;;8.47;52.59;95096.31;5004570;28;20057;-78
2022/12/25 12:34:58;;;;;;;20.27;5.00;;;;;;;7.80;54.26;95095.91;5004958;28;20091;-78
2022/12/25 12:37:29;;;;;;;7.63;4.90;;;;;;;8.75;52.18;95102.91;5006566;28;20067;-78
2022/12/25 12:39:55;;;;;;;9.02;5.90;;;;;;;8.72;52.41;95114.72;5002959;28;20138;-78
2022/12/25 12:42:24;;;;;;;10.93;5.70;;;;;;;8.81;51.77;95100.34;5001061;28;20082;-77
2022/12/25 12:44:54;;;;;;;6.07;3.97;;;;;;;9.16;52.20;95109.69;4990910;28;20066;-79
2022/12/25 12:47:29;;;;;;;7.97;5.28;;;;;;;8.91;51.88;95109.91;5001244;28;20198;-77
2022/12/25 12:49:58;;;;;;;8.13;4.25;;;;;;;9.26;50.93;95110.28;5000314;28;20148;-63
2022/12/25 12:52:44;;;;;;;10.63;6.18;;;;;;;8.77;51.08;95107.03;4997945;28;20051;-63
2022/12/25 12:55:11;;;;;;;6.97;4.03;;;;;;;9.31;51.25;95113.19;5001420;28;20173;-64
2022/12/25 12:57:40;;;;;;;5.80;4.20;;;;;;;8.35;52.94;95113.66;5001271;28;20393;-64
2022/12/25 13:00:16;;;;;;;11.13;5.70;;;;;;;8.75;51.31;95100.25;4980144;28;20416;-64
2022/12/25 13:02:56;;;;;;;9.43;6.63;;;;;;;9.04;51.28;95098.69;5000593;28;20168;-64
2022/12/25 13:05:40;;;;;;;5.88;4.35;;;;;;;9.16;51.56;95093.78;5001926;28;20066;-63
2022/12/25 13:08:30;;;;;;;10.73;4.38;;;;;;;7.73;54.31;95087.81;5002436;28;20070;-63
2022/12/25 13:11:14;;;;;;;5.00;3.42;;;;;;;8.78;53.01;95087.44;5003218;28;20083;-63
2022/12/25 13:13:40;;;;;;;4.85;3.85;;;;;;;8.93;52.42;95095.47;5006495;28;20707;-63
2022/12/25 13:16:09;;;;;;;7.28;3.90;;;;;;;9.22;51.64;95087.75;5005550;28;20116;-63
2022/12/25 13:18:37;;;;;;;7.32;3.90;;;;;;;9.37;51.09;95079.75;4988945;28;20097;-63
2022/12/25 13:21:03;;;;;;;7.20;4.57;;;;;;;9.13;51.18;95076.38;4995277;28;20043;-63
2022/12/25 13:23:33;;;;;;;5.28;3.45;;;;;;;9.16;51.22;95073.34;4998629;28;20463;-63
2022/12/25 13:26:04;;;;;;;4.72;3.50;;;;;;;9.22;51.25;95079.78;5012869;28;20097;-63
2022/12/25 13:28:34;;;;;;;7.20;5.15;;;;;;;9.14;51.27;95077.19;5012524;28;20067;-63